Time;durP1;ratioP1;P1;durP2;ratioP2;P2;SDS_P1;SDS_P2;PMS_P1;PMS_P2;Temp;Humidity;BMP_temperature;BMP_pressure;BME280_temperature;BME280_humidity;BME280_pressure;Samples;Min_cycle;Max_cycle;Signal;HPM_P1;HPM_P2
2022/02/17 00:00:42;;;;;;;0.30;0.30;;;;;;;12.26;100.00;96841.47;5115559;28;20642;-69
2022/02/17 00:03:08;;;;;;;0.30;0.30;;;;;;;12.21;100.00;96851.66;5113864;28;20251;-69
2022/02/17 00:05:35;;;;;;;0.83;0.20;;;;;;;12.16;100.00;96838.06;5115504;28;20217;-69
2022/02/17 00:08:02;;;;;;;0.30;0.30;;;;;;;12.28;100.00;96842.16;5115529;28;20236;-69
2022/02/17 00:10:29;;;;;;;0.60;0.20;;;;;;;12.34;100.00;96838.94;5115347;28;20689;-69
2022/02/17 00:12:58;;;;;;;0.37;0.27;;;;;;;12.36;100.00;96844.91;5115403;28;20218;-69
2022/02/17 00:15:26;;;;;;;0.30;0.30;;;;;;;12.42;100.00;96817.81;5115412;28;20585;-70
2022/02/17 00:17:53;;;;;;;0.20;0.20;;;;;;;12.43;100.00;96832.72;5115117;28;20213;-70
2022/02/17 00:20:19;;;;;;;0.30;0.30;;;;;;;12.42;100.00;96847.78;5115438;28;20241;-70
2022/02/17 00:22:46;;;;;;;0.30;0.30;;;;;;;12.41;100.00;96824.09;5115178;28;20259;-70
2022/02/17 00:25:12;;;;;;;0.83;0.30;;;;;;;12.44;100.00;96797.28;5112944;28;20221;-69
2022/02/17 00:27:39;;;;;;;0.20;0.20;;;;;;;12.50;99.98;96804.66;5114930;28;20690;-69
2022/02/17 00:30:08;;;;;;;0.20;0.20;;;;;;;12.48;100.00;96803.97;5113257;28;20225;-69
2022/02/17 00:32:36;;;;;;;0.33;0.20;;;;;;;12.53;99.38;96804.38;5114765;28;20218;-69
2022/02/17 00:35:04;;;;;;;0.20;0.20;;;;;;;12.51;100.00;96817.75;5115000;28;20213;-69
2022/02/17 00:37:31;;;;;;;0.30;0.30;;;;;;;12.46;100.00;96814.72;5114673;28;20214;-69
2022/02/17 00:39:57;;;;;;;0.83;0.20;;;;;;;12.49;100.00;96817.09;5114678;28;20221;-69
2022/02/17 00:42:24;;;;;;;0.83;0.10;;;;;;;12.57;99.10;96811.84;5114758;28;20236;-70
2022/02/17 00:44:52;;;;;;;0.20;0.20;;;;;;;12.59;99.36;96827.63;5114892;28;20220;-69
2022/02/17 00:47:19;;;;;;;0.20;0.20;;;;;;;12.59;99.54;96840.88;5114901;28;20217;-69
2022/02/17 00:49:47;;;;;;;0.30;0.30;;;;;;;12.60;99.59;96838.03;5115107;28;20219;-69
2022/02/17 00:52:13;;;;;;;0.77;0.20;;;;;;;12.53;100.00;96836.16;5114600;28;20212;-69
2022/02/17 00:54:40;;;;;;;0.10;0.10;;;;;;;12.47;100.00;96815.56;5112870;28;20594;-69
2022/02/17 00:57:06;;;;;;;1.10;0.20;;;;;;;12.48;100.00;96820.69;5114628;28;20222;-69
2022/02/17 00:59:33;;;;;;;0.33;0.10;;;;;;;12.41;100.00;96805.56;5114713;28;20215;-70
2022/02/17 01:01:59;;;;;;;0.30;0.30;;;;;;;12.33;100.00;96789.56;5114189;28;20240;-69
2022/02/17 01:04:26;;;;;;;0.23;0.20;;;;;;;12.21;100.00;96793.38;5114542;28;20209;-69
2022/02/17 01:06:54;;;;;;;0.20;0.20;;;;;;;12.02;100.00;96781.09;5114233;28;20210;-69
2022/02/17 01:09:20;;;;;;;0.37;0.20;;;;;;;11.86;100.00;96798.59;5113518;28;20243;-69
2022/02/17 01:11:47;;;;;;;0.20;0.20;;;;;;;11.70;100.00;96803.69;5114457;28;20210;-69
2022/02/17 01:14:13;;;;;;;0.37;0.30;;;;;;;11.66;100.00;96828.75;5114397;28;20223;-69
2022/02/17 01:16:40;;;;;;;0.10;0.10;;;;;;;11.61;100.00;96846.91;5112223;28;20208;-69
2022/02/17 01:19:07;;;;;;;0.30;0.30;;;;;;;11.62;100.00;96859.16;5114083;28;20217;-69
2022/02/17 01:21:33;;;;;;;1.67;0.27;;;;;;;11.67;100.00;96820.69;5112545;28;20242;-69
2022/02/17 01:24:01;;;;;;;0.20;0.20;;;;;;;11.60;100.00;96824.03;5114202;28;20213;-68
2022/02/17 01:26:28;;;;;;;0.57;0.17;;;;;;;11.55;100.00;96810.41;5114109;28;20985;-69
2022/02/17 01:28:54;;;;;;;0.20;0.20;;;;;;;11.53;100.00;96812.31;5114049;28;20214;-69
2022/02/17 01:31:21;;;;;;;0.63;0.20;;;;;;;11.45;100.00;96813.06;5114134;28;20220;-69
2022/02/17 01:33:47;;;;;;;0.30;0.30;;;;;;;11.46;100.00;96821.81;5114112;28;20219;-69
2022/02/17 01:36:14;;;;;;;0.20;0.20;;;;;;;11.53;100.00;96817.63;5113775;28;20238;-69
2022/02/17 01:38:44;;;;;;;0.30;0.30;;;;;;;11.52;100.00;96829.19;5111177;28;20667;-69
2022/02/17 01:41:14;;;;;;;0.20;0.20;;;;;;;11.59;100.00;96819.72;5113823;28;20572;-68
2022/02/17 01:43:40;;;;;;;0.20;0.20;;;;;;;11.64;100.00;96820.13;5113806;28;20217;-69
2022/02/17 01:46:07;;;;;;;0.30;0.30;;;;;;;11.64;100.00;96826.28;5113493;28;20224;-69
2022/02/17 01:48:34;;;;;;;0.20;0.20;;;;;;;11.55;100.00;96820.97;5112197;28;20210;-69
2022/02/17 01:51:01;;;;;;;0.30;0.30;;;;;;;11.60;100.00;96824.88;5113502;28;20223;-68
2022/02/17 01:53:30;;;;;;;0.20;0.20;;;;;;;11.55;100.00;96820.97;5113571;28;20685;-68
2022/02/17 01:55:58;;;;;;;0.83;0.20;;;;;;;11.51;100.00;96827.53;5113552;28;20224;-69
2022/02/17 01:58:27;;;;;;;0.87;0.20;;;;;;;11.43;100.00;96825.59;5113440;28;20217;-69
2022/02/17 02:00:54;;;;;;;0.43;0.20;;;;;;;11.28;100.00;96827.03;5110295;28;20219;-69
2022/02/17 02:03:20;;;;;;;2.20;0.30;;;;;;;11.16;100.00;96830.78;5111153;28;20246;-69
2022/02/17 02:05:47;;;;;;;0.20;0.20;;;;;;;11.08;100.00;96825.34;5108454;28;20298;-69
2022/02/17 02:08:14;;;;;;;0.20;0.20;;;;;;;11.05;100.00;96817.72;5111056;28;20213;-69
2022/02/17 02:10:40;;;;;;;0.40;0.40;;;;;;;11.03;100.00;96797.69;5111265;28;20221;-69
2022/02/17 02:13:07;;;;;;;0.30;0.30;;;;;;;11.02;100.00;96796.03;5109405;28;20221;-69
2022/02/17 02:15:46;;;;;;;0.30;0.30;;;;;;;10.96;100.00;96804.50;5113696;28;20213;-68
2022/02/17 02:18:13;;;;;;;1.50;0.30;;;;;;;10.98;100.00;96795.47;5113475;28;20247;-69
2022/02/17 02:20:46;;;;;;;0.20;0.20;;;;;;;10.96;100.00;96801.88;5113106;28;20219;-69
2022/02/17 02:23:12;;;;;;;0.20;0.20;;;;;;;10.96;100.00;96800.03;5117330;28;20275;-69
2022/02/17 02:25:44;;;;;;;0.30;0.20;;;;;;;10.94;100.00;96803.81;5117768;28;20225;-69
2022/02/17 02:28:10;;;;;;;0.30;0.30;;;;;;;10.86;100.00;96777.25;5117424;28;20235;-68
2022/02/17 02:30:37;;;;;;;0.30;0.30;;;;;;;10.82;100.00;96794.38;5117164;28;20291;-69
2022/02/17 02:33:03;;;;;;;0.73;0.30;;;;;;;10.85;100.00;96794.06;5117355;28;20225;-68
2022/02/17 02:35:30;;;;;;;0.40;0.33;;;;;;;10.88;100.00;96794.63;5117419;28;20287;-69
2022/02/17 02:37:57;;;;;;;0.77;0.30;;;;;;;10.92;100.00;96805.75;5117507;28;20217;-69
2022/02/17 02:40:24;;;;;;;0.30;0.30;;;;;;;10.92;100.00;96787.25;5115402;28;20210;-68
2022/02/17 02:42:51;;;;;;;0.50;0.50;;;;;;;10.92;100.00;96796.03;5117556;28;20249;-68
2022/02/17 02:45:17;;;;;;;0.17;0.17;;;;;;;10.83;100.00;96769.59;5117499;28;20219;-68
2022/02/17 02:47:44;;;;;;;0.20;0.20;;;;;;;10.77;100.00;96751.66;5117300;28;20213;-68
2022/02/17 02:50:10;;;;;;;1.60;0.30;;;;;;;10.69;100.00;96746.22;5117076;28;20213;-68
2022/02/17 02:52:37;;;;;;;0.23;0.23;;;;;;;10.57;100.00;96757.91;5116776;28;20221;-69
2022/02/17 02:55:06;;;;;;;0.40;0.20;;;;;;;10.52;100.00;96763.63;5115185;28;20221;-68
2022/02/17 02:57:32;;;;;;;0.20;0.20;;;;;;;10.54;100.00;96758.22;5116856;28;20214;-69
2022/02/17 02:59:59;;;;;;;0.20;0.20;;;;;;;10.65;100.00;96766.00;5117080;28;20215;-68
2022/02/17 03:02:25;;;;;;;0.20;0.20;;;;;;;10.74;100.00;96767.78;5116589;28;20703;-68
2022/02/17 03:04:52;;;;;;;0.20;0.20;;;;;;;10.87;100.00;96760.41;5115128;28;20214;-69
2022/02/17 03:07:18;;;;;;;0.30;0.30;;;;;;;10.91;100.00;96746.78;5116959;28;20214;-68
2022/02/17 03:09:45;;;;;;;0.20;0.20;;;;;;;10.87;100.00;96749.84;5116945;28;20600;-68
2022/02/17 03:12:13;;;;;;;0.20;0.20;;;;;;;10.87;100.00;96741.91;5116510;28;20207;-69
2022/02/17 03:14:40;;;;;;;0.30;0.30;;;;;;;10.93;100.00;96730.75;5116170;28;20710;-69
2022/02/17 03:17:07;;;;;;;0.20;0.20;;;;;;;10.91;100.00;96741.50;5116584;28;20220;-68
2022/02/17 03:19:33;;;;;;;0.20;0.20;;;;;;;11.00;100.00;96724.78;5116610;28;20212;-69
2022/02/17 03:22:00;;;;;;;0.20;0.20;;;;;;;11.05;100.00;96726.97;5116532;28;20248;-69
2022/02/17 03:24:26;;;;;;;0.20;0.20;;;;;;;11.02;100.00;96719.34;5116406;28;20211;-69
2022/02/17 03:26:52;;;;;;;0.20;0.20;;;;;;;11.02;100.00;96743.16;5116306;28;20218;-69
2022/02/17 03:29:20;;;;;;;0.17;0.17;;;;;;;11.06;100.00;96744.53;5116470;28;20217;-68
2022/02/17 03:31:47;;;;;;;0.20;0.20;;;;;;;11.11;100.00;96742.28;5114246;28;20216;-69
2022/02/17 03:34:14;;;;;;;0.30;0.30;;;;;;;11.16;100.00;96734.75;5116015;28;20240;-69
2022/02/17 03:36:40;;;;;;;0.20;0.20;;;;;;;11.13;100.00;96735.88;5115934;28;20217;-69
2022/02/17 03:39:07;;;;;;;0.20;0.20;;;;;;;11.10;100.00;96735.31;5116198;28;20236;-69
2022/02/17 03:41:33;;;;;;;0.20;0.20;;;;;;;11.11;100.00;96747.56;5116266;28;20672;-69
2022/02/17 03:44:00;;;;;;;0.30;0.30;;;;;;;11.21;100.00;96737.81;5115919;28;20245;-69
2022/02/17 03:46:27;;;;;;;0.23;0.20;;;;;;;11.27;100.00;96738.09;5102034;28;20221;-69
2022/02/17 03:48:54;;;;;;;0.10;0.10;;;;;;;11.38;100.00;96739.72;5116185;28;20553;-70
2022/02/17 03:51:20;;;;;;;0.30;0.30;;;;;;;11.44;100.00;96741.78;5115686;28;20219;-69
2022/02/17 03:53:47;;;;;;;0.20;0.20;;;;;;;11.41;100.00;96744.69;5115624;28;20689;-69
2022/02/17 03:56:13;;;;;;;0.20;0.20;;;;;;;11.55;100.00;96747.72;5115480;28;20699;-69
2022/02/17 04:01:24;;;;;;;0.30;0.30;;;;;;;11.59;100.00;96750.94;5115570;28;20295;-69
2022/02/17 04:03:51;;;;;;;0.17;0.17;;;;;;;11.58;100.00;96758.06;5115593;28;20239;-69
2022/02/17 04:06:18;;;;;;;0.20;0.20;;;;;;;11.58;100.00;96747.47;5115680;28;20223;-69
2022/02/17 04:08:44;;;;;;;0.20;0.20;;;;;;;11.67;100.00;96745.75;5113498;28;20245;-69
2022/02/17 04:11:11;;;;;;;0.10;0.10;;;;;;;11.73;100.00;96771.66;5115249;28;20206;-69
2022/02/17 04:13:37;;;;;;;0.20;0.20;;;;;;;11.73;100.00;96761.88;5115169;28;20207;-69
2022/02/17 04:16:05;;;;;;;0.20;0.20;;;;;;;11.70;100.00;96780.72;5115493;28;20525;-69
2022/02/17 04:18:31;;;;;;;0.73;0.20;;;;;;;11.62;100.00;96766.53;5115701;28;20566;-69
2022/02/17 04:20:59;;;;;;;0.40;0.40;;;;;;;11.51;100.00;96783.41;5115516;28;20221;-69
2022/02/17 04:23:25;;;;;;;0.30;0.30;;;;;;;11.36;100.00;96789.25;5113512;28;20594;-68
2022/02/17 04:25:52;;;;;;;0.83;0.40;;;;;;;11.56;100.00;96775.84;5114947;28;20222;-69
2022/02/17 04:28:18;;;;;;;0.20;0.20;;;;;;;11.61;100.00;96778.91;5115173;28;20574;-69
2022/02/17 04:30:45;;;;;;;0.40;0.30;;;;;;;11.65;100.00;96792.69;5115180;28;20210;-69
2022/02/17 04:33:11;;;;;;;0.20;0.20;;;;;;;11.68;100.00;96795.06;5114815;28;20299;-69
2022/02/17 04:35:38;;;;;;;0.23;0.23;;;;;;;11.65;100.00;96805.91;5115227;28;20220;-70
2022/02/17 04:38:05;;;;;;;0.70;0.27;;;;;;;11.72;100.00;96796.41;5115083;28;20216;-69
2022/02/17 04:43:16;;;;;;;0.20;0.20;;;;;;;11.39;100.00;96770.47;5112683;28;20240;-68
2022/02/17 04:45:42;;;;;;;0.20;0.20;;;;;;;11.37;100.00;96781.19;5114525;28;20213;-69
2022/02/17 04:48:09;;;;;;;0.30;0.30;;;;;;;11.33;100.00;96795.69;5114939;28;20214;-68
2022/02/17 04:50:35;;;;;;;0.20;0.20;;;;;;;11.46;100.00;96796.22;5113199;28;20210;-69
2022/02/17 04:53:02;;;;;;;0.20;0.20;;;;;;;11.66;100.00;96805.78;5114376;28;20705;-69
2022/02/17 04:55:30;;;;;;;0.20;0.20;;;;;;;11.77;100.00;96823.28;5114730;28;20223;-69
2022/02/17 04:57:56;;;;;;;0.20;0.20;;;;;;;11.74;100.00;96816.47;5114665;28;20224;-68
2022/02/17 05:00:23;;;;;;;0.40;0.30;;;;;;;11.71;100.00;96818.56;5114966;28;20212;-69
2022/02/17 05:02:49;;;;;;;0.53;0.20;;;;;;;11.67;100.00;96809.28;5114258;28;20245;-68
2022/02/17 05:05:16;;;;;;;0.30;0.30;;;;;;;11.61;100.00;96809.84;5114710;28;20228;-70
2022/02/17 05:07:42;;;;;;;0.83;0.30;;;;;;;11.55;100.00;96827.09;5114465;28;20222;-69
2022/02/17 05:10:09;;;;;;;1.20;0.20;;;;;;;11.56;100.00;96844.63;5114863;28;20242;-69
2022/02/17 05:12:38;;;;;;;0.27;0.27;;;;;;;11.54;100.00;96841.28;5114292;28;20682;-68
2022/02/17 05:15:05;;;;;;;0.27;0.27;;;;;;;11.48;100.00;96859.53;5112592;28;20219;-69
2022/02/17 05:17:32;;;;;;;0.30;0.30;;;;;;;11.42;100.00;96863.59;5114509;28;20211;-69
2022/02/17 05:19:58;;;;;;;0.30;0.30;;;;;;;11.40;100.00;96868.22;5114310;28;20207;-68
2022/02/17 05:22:25;;;;;;;0.47;0.30;;;;;;;11.40;100.00;96870.00;5112800;28;20220;-69
2022/02/17 05:24:51;;;;;;;0.20;0.20;;;;;;;11.39;100.00;96878.91;5113879;28;20217;-68
2022/02/17 05:27:18;;;;;;;0.27;0.20;;;;;;;11.42;100.00;96894.50;5113913;28;20286;-68
2022/02/17 05:29:45;;;;;;;0.30;0.30;;;;;;;11.40;100.00;96901.75;5114180;28;20213;-68
2022/02/17 05:32:12;;;;;;;0.43;0.20;;;;;;;11.41;100.00;96924.56;5113654;28;20585;-68
2022/02/17 05:34:38;;;;;;;0.70;0.30;;;;;;;11.47;100.00;96934.59;5113769;28;20217;-70
2022/02/17 05:37:05;;;;;;;0.87;0.30;;;;;;;11.41;100.00;96953.69;5113981;28;20582;-68
2022/02/17 05:39:32;;;;;;;1.03;0.40;;;;;;;11.40;100.00;97003.13;5113589;28;20685;-68
2022/02/17 05:41:58;;;;;;;0.30;0.30;;;;;;;11.24;100.00;96980.81;5112210;28;20218;-68
2022/02/17 05:44:25;;;;;;;1.47;0.47;;;;;;;11.01;100.00;96968.84;5113795;28;20241;-67
2022/02/17 05:46:53;;;;;;;3.63;0.70;;;;;;;10.75;100.00;96967.63;5113506;28;20211;-67
2022/02/17 05:49:19;;;;;;;2.97;0.80;;;;;;;10.64;100.00;96978.34;5113477;28;20682;-67
2022/02/17 05:51:46;;;;;;;2.17;1.00;;;;;;;10.56;100.00;96991.38;5113644;28;20667;-67
2022/02/17 05:54:12;;;;;;;2.80;1.00;;;;;;;10.45;100.00;96973.81;5113691;28;20744;-67
2022/02/17 05:56:40;;;;;;;3.93;1.10;;;;;;;10.37;100.00;96975.44;5113384;28;20215;-68
2022/02/17 05:59:06;;;;;;;4.77;1.50;;;;;;;10.38;100.00;96985.03;5113739;28;20259;-68
2022/02/17 06:01:33;;;;;;;5.50;1.50;;;;;;;10.32;100.00;96994.34;5113703;28;20211;-66
2022/02/17 06:04:01;;;;;;;4.77;1.57;;;;;;;10.30;100.00;96992.78;5113706;28;20236;-67
2022/02/17 06:06:27;;;;;;;3.27;1.73;;;;;;;10.35;100.00;97006.44;5113187;28;20210;-66
2022/02/17 06:08:54;;;;;;;5.73;1.63;;;;;;;10.39;100.00;97007.84;5111820;28;20230;-67
2022/02/17 06:11:20;;;;;;;5.73;1.70;;;;;;;10.36;100.00;96994.91;5113647;28;20214;-67
2022/02/17 06:13:47;;;;;;;5.93;1.60;;;;;;;10.31;100.00;96999.75;5113735;28;20209;-67
2022/02/17 06:16:13;;;;;;;5.60;1.50;;;;;;;10.27;100.00;97001.81;5113233;28;20210;-67
2022/02/17 06:18:39;;;;;;;7.17;1.63;;;;;;;10.32;100.00;97007.53;5113657;28;20216;-67
2022/02/17 06:21:07;;;;;;;6.13;1.50;;;;;;;10.38;100.00;96992.97;5113460;28;20217;-67
2022/02/17 06:23:34;;;;;;;4.23;1.50;;;;;;;10.45;100.00;97008.16;5113072;28;20244;-67
2022/02/17 06:26:00;;;;;;;2.73;1.20;;;;;;;10.47;100.00;96997.47;5113436;28;20220;-67
2022/02/17 06:28:27;;;;;;;6.47;1.30;;;;;;;10.38;100.00;96995.59;5113338;28;20210;-67
2022/02/17 06:30:53;;;;;;;4.17;1.23;;;;;;;10.29;100.00;97012.25;5113211;28;20690;-67
2022/02/17 06:33:20;;;;;;;4.37;1.07;;;;;;;10.22;100.00;97029.59;5109391;28;20214;-67
2022/02/17 06:35:46;;;;;;;4.17;1.00;;;;;;;10.15;100.00;97041.63;5113052;28;20218;-69
2022/02/17 06:38:14;;;;;;;5.13;1.30;;;;;;;10.26;100.00;97044.19;5113442;28;20219;-68
2022/02/17 06:40:41;;;;;;;3.13;1.10;;;;;;;10.19;100.00;97037.75;5110875;28;20210;-69
2022/02/17 06:43:09;;;;;;;3.80;1.33;;;;;;;10.26;100.00;97039.75;5113089;28;20245;-68
2022/02/17 06:45:37;;;;;;;5.87;1.70;;;;;;;10.41;100.00;97058.75;5113114;28;20207;-68
2022/02/17 06:48:05;;;;;;;5.43;1.47;;;;;;;10.44;100.00;97064.59;5112844;28;20679;-70
2022/02/17 06:50:32;;;;;;;4.87;1.40;;;;;;;10.48;100.00;97070.44;5112900;28;20693;-69
2022/02/17 06:52:59;;;;;;;6.90;1.87;;;;;;;10.46;100.00;97072.41;5110838;28;20219;-70
2022/02/17 06:55:27;;;;;;;5.23;1.30;;;;;;;10.43;100.00;97077.91;5113166;28;20220;-70
2022/02/17 06:57:53;;;;;;;6.90;1.97;;;;;;;10.41;100.00;97079.88;5112949;28;20574;-69
2022/02/17 07:00:21;;;;;;;5.23;1.30;;;;;;;10.31;100.00;97077.16;5111403;28;20206;-69
2022/02/17 07:02:52;;;;;;;5.77;1.80;;;;;;;10.31;100.00;97097.44;5112723;28;20554;-69
2022/02/17 07:05:19;;;;;;;5.30;1.80;;;;;;;10.32;100.00;97085.91;5113003;28;20222;-69
2022/02/17 07:07:46;;;;;;;4.20;1.33;;;;;;;10.41;100.00;97087.78;5114535;28;20263;-70
2022/02/17 07:10:13;;;;;;;6.60;1.83;;;;;;;10.43;100.00;97099.06;5116931;28;20239;-70
2022/02/17 07:12:43;;;;;;;5.27;1.40;;;;;;;10.48;100.00;97088.94;5114492;28;20216;-69
2022/02/17 07:15:10;;;;;;;5.40;1.70;;;;;;;10.50;100.00;97094.91;5116712;28;20215;-70
2022/02/17 07:17:37;;;;;;;6.27;1.60;;;;;;;10.48;100.00;97118.00;5116479;28;20232;-69
2022/02/17 07:20:05;;;;;;;4.00;2.00;;;;;;;10.51;98.52;97108.00;5116475;28;20585;-69
2022/02/17 07:22:31;;;;;;;9.03;2.13;;;;;;;10.58;96.76;97108.34;5116036;28;20218;-69
2022/02/17 07:24:58;;;;;;;4.40;1.60;;;;;;;10.59;95.02;97094.16;5111179;28;20233;-71
2022/02/17 07:27:24;;;;;;;8.30;2.03;;;;;;;10.71;93.34;97079.88;5113241;28;20222;-69
2022/02/17 07:29:52;;;;;;;8.20;1.93;;;;;;;10.74;92.70;97087.53;5113127;28;20221;-69
2022/02/17 07:32:18;;;;;;;7.50;2.13;;;;;;;10.74;91.97;97091.03;5110874;28;20272;-69
2022/02/17 07:34:45;;;;;;;6.20;1.80;;;;;;;10.65;92.26;97093.63;5112943;28;20225;-69
2022/02/17 07:37:16;;;;;;;5.70;1.83;;;;;;;10.59;91.82;97097.63;5113312;28;20212;-70
2022/02/17 07:39:42;;;;;;;6.73;1.70;;;;;;;10.53;91.03;97100.78;5112828;28;20214;-69
2022/02/17 07:42:09;;;;;;;5.40;1.90;;;;;;;10.58;90.29;97108.34;5110373;28;20221;-69
2022/02/17 07:44:36;;;;;;;7.77;1.70;;;;;;;10.54;90.12;97117.47;5113033;28;20285;-69
2022/02/17 07:47:04;;;;;;;8.67;2.77;;;;;;;10.43;90.88;97115.75;5113003;28;20221;-69
2022/02/17 07:49:31;;;;;;;7.17;1.80;;;;;;;10.43;90.12;97120.19;5112764;28;20405;-69
2022/02/17 07:51:57;;;;;;;8.37;2.40;;;;;;;10.51;89.48;97138.88;5108409;28;20684;-69
2022/02/17 07:54:25;;;;;;;10.73;2.17;;;;;;;10.50;89.37;97131.91;5103952;28;20218;-69
2022/02/17 07:56:51;;;;;;;6.27;1.80;;;;;;;10.47;89.91;97117.16;5112564;28;20266;-69
2022/02/17 07:59:18;;;;;;;7.77;1.87;;;;;;;10.48;89.42;97120.63;5112949;28;20296;-69
2022/02/17 08:01:44;;;;;;;3.57;1.40;;;;;;;10.53;89.20;97131.66;5110706;28;20218;-69
2022/02/17 08:04:12;;;;;;;7.27;2.20;;;;;;;10.71;87.01;97136.19;5113128;28;20706;-69
2022/02/17 08:06:43;;;;;;;5.47;1.63;;;;;;;10.82;86.60;97153.81;5113341;28;20207;-69
2022/02/17 08:09:09;;;;;;;4.00;1.50;;;;;;;10.82;86.58;97178.41;5112753;28;20249;-70
2022/02/17 08:11:36;;;;;;;7.07;1.80;;;;;;;10.84;86.34;97180.94;5110707;28;20211;-69
2022/02/17 08:14:02;;;;;;;6.37;1.73;;;;;;;10.87;85.47;97183.31;5115537;28;20305;-69
2022/02/17 08:16:29;;;;;;;4.73;1.90;;;;;;;10.85;85.98;97207.25;5115567;28;20213;-69
2022/02/17 08:18:55;;;;;;;6.47;1.87;;;;;;;10.80;85.56;97192.72;5113929;28;20206;-69
2022/02/17 08:21:23;;;;;;;7.27;2.10;;;;;;;10.81;85.23;97194.41;5115428;28;20228;-69
2022/02/17 08:23:49;;;;;;;7.40;1.80;;;;;;;10.81;86.47;97200.53;5115113;28;20237;-69
2022/02/17 08:26:17;;;;;;;6.07;2.00;;;;;;;10.90;85.70;97214.78;5115237;28;20257;-70
2022/02/17 08:28:44;;;;;;;7.03;1.83;;;;;;;10.92;85.31;97215.47;5114953;28;20675;-70
2022/02/17 08:31:12;;;;;;;7.70;1.83;;;;;;;10.97;83.57;97211.50;5114926;28;20214;-69
2022/02/17 08:33:38;;;;;;;7.47;1.70;;;;;;;11.02;83.05;97229.59;5115130;28;20245;-69
2022/02/17 08:36:05;;;;;;;3.67;1.70;;;;;;;11.06;83.11;97231.84;5114951;28;20215;-69
2022/02/17 08:38:33;;;;;;;5.90;1.90;;;;;;;11.02;83.01;97230.41;5115094;28;20212;-69
2022/02/17 08:41:00;;;;;;;6.57;1.93;;;;;;;10.93;83.90;97233.00;5115014;28;20220;-69
2022/02/17 08:43:26;;;;;;;7.17;2.10;;;;;;;10.87;82.30;97255.53;5112916;28;20214;-69
2022/02/17 08:45:53;;;;;;;5.30;1.60;;;;;;;10.91;75.79;97234.94;5115117;28;20217;-69
2022/02/17 08:48:20;;;;;;;7.50;1.93;;;;;;;11.01;71.91;97233.22;5114734;28;20213;-70
2022/02/17 08:50:47;;;;;;;11.20;2.27;;;;;;;11.02;71.65;97261.31;5114447;28;20209;-70
2022/02/17 08:53:14;;;;;;;6.77;2.30;;;;;;;10.96;72.73;97261.84;5100714;28;20217;-69
2022/02/17 08:55:42;;;;;;;13.60;2.80;;;;;;;11.01;70.49;97243.78;5113302;28;20229;-70
2022/02/17 08:58:08;;;;;;;9.37;2.20;;;;;;;10.96;71.65;97256.56;5112512;28;20221;-70
2022/02/17 09:00:35;;;;;;;12.90;2.77;;;;;;;11.00;69.67;97264.09;5107391;28;20217;-71
2022/02/17 09:03:03;;;;;;;10.47;2.40;;;;;;;10.96;70.34;97257.38;5110382;28;20244;-73
2022/02/17 09:05:31;;;;;;;11.93;2.67;;;;;;;11.00;70.51;97252.69;5110111;28;20245;-69
2022/02/17 09:07:58;;;;;;;10.73;2.70;;;;;;;11.01;68.89;97267.59;5104475;28;20225;-70
2022/02/17 09:10:24;;;;;;;8.47;2.40;;;;;;;11.00;70.04;97273.84;5108925;28;20225;-69
2022/02/17 09:12:52;;;;;;;10.40;2.80;;;;;;;11.06;69.66;97278.63;5111372;28;20211;-69
2022/02/17 09:15:18;;;;;;;11.27;2.60;;;;;;;11.04;70.74;97288.47;5111933;28;20203;-68
2022/02/17 09:17:46;;;;;;;6.60;2.37;;;;;;;11.06;70.88;97315.63;5111643;28;20219;-69
2022/02/17 09:20:15;;;;;;;10.30;2.57;;;;;;;11.12;70.71;97288.69;5113962;28;20230;-71
2022/02/17 09:22:42;;;;;;;11.80;2.93;;;;;;;10.99;70.96;97301.22;5112636;28;20268;-69
2022/02/17 09:25:09;;;;;;;9.83;2.67;;;;;;;10.83;71.66;97319.34;5111611;28;20234;-69
2022/02/17 09:27:36;;;;;;;12.37;3.40;;;;;;;10.72;71.25;97311.47;5113233;28;20276;-69
2022/02/17 09:30:05;;;;;;;11.63;2.87;;;;;;;10.77;70.85;97320.69;5112882;28;20216;-68
2022/02/17 09:32:32;;;;;;;10.80;2.67;;;;;;;10.71;70.99;97317.72;5110980;28;20212;-69
2022/02/17 09:34:59;;;;;;;14.20;3.13;;;;;;;10.64;69.43;97335.06;5094195;28;20210;-69
2022/02/17 09:37:26;;;;;;;12.30;3.03;;;;;;;10.62;68.25;97332.53;5105138;28;20213;-69
2022/02/17 09:39:53;;;;;;;12.13;2.90;;;;;;;10.60;66.83;97337.09;5112035;28;20682;-69
2022/02/17 09:42:20;;;;;;;14.20;4.13;;;;;;;10.61;68.26;97338.78;5113025;28;20216;-69
2022/02/17 09:44:47;;;;;;;13.17;3.07;;;;;;;10.68;71.23;97357.59;5112556;28;20256;-69
2022/02/17 09:47:15;;;;;;;11.10;2.90;;;;;;;10.63;73.31;97359.78;5112102;28;20221;-68
2022/02/17 09:49:44;;;;;;;11.50;3.37;;;;;;;10.37;74.71;97348.69;5112103;28;20303;-68
2022/02/17 09:52:11;;;;;;;14.67;2.77;;;;;;;10.23;75.93;97350.75;5121731;27;20692;-68
2022/02/17 09:54:38;;;;;;;12.90;2.73;;;;;;;10.29;73.04;97360.84;5110570;28;20597;-69
2022/02/17 09:57:05;;;;;;;10.23;3.17;;;;;;;10.18;73.70;97371.41;5112425;28;20589;-69
2022/02/17 09:59:31;;;;;;;12.97;3.07;;;;;;;10.20;73.50;97369.47;5112741;28;20216;-69
2022/02/17 10:02:00;;;;;;;12.80;3.37;;;;;;;10.29;75.00;97377.50;5110590;28;20223;-70
2022/02/17 10:04:29;;;;;;;10.33;2.60;;;;;;;10.23;76.64;97362.19;5111989;28;20244;-68
2022/02/17 10:06:57;;;;;;;11.83;3.27;;;;;;;10.35;72.82;97381.47;5112724;28;20224;-71
2022/02/17 10:09:36;;;;;;;10.27;2.90;;;;;;;10.40;71.11;97374.03;5111963;28;20251;-69
2022/02/17 10:12:04;;;;;;;14.50;3.13;;;;;;;10.36;69.99;97362.00;5099862;28;20237;-69
2022/02/17 10:14:30;;;;;;;10.80;3.10;;;;;;;10.51;69.58;97376.66;5112227;28;20224;-70
2022/02/17 10:16:58;;;;;;;13.97;3.50;;;;;;;10.56;68.41;97379.72;5113367;28;20296;-69
2022/02/17 10:19:27;;;;;;;11.83;3.50;;;;;;;10.48;69.69;97401.50;5113291;28;20299;-69
2022/02/17 10:22:10;;;;;;;13.30;3.23;;;;;;;10.38;70.80;97412.91;5113049;28;20686;-69
2022/02/17 10:24:40;;;;;;;13.07;2.77;;;;;;;10.31;71.38;97417.00;5113034;28;20254;-69
2022/02/17 10:27:09;;;;;;;9.33;2.77;;;;;;;10.39;72.03;97414.63;5113279;28;20218;-68
2022/02/17 10:29:36;;;;;;;10.97;2.80;;;;;;;10.41;72.97;97417.97;5111307;28;20220;-68
2022/02/17 10:32:09;;;;;;;11.00;3.43;;;;;;;10.41;75.73;97407.41;5112930;28;20216;-68
2022/02/17 10:34:37;;;;;;;8.70;3.10;;;;;;;10.57;74.86;97403.41;5113261;28;20223;-68
2022/02/17 10:37:04;;;;;;;11.73;3.17;;;;;;;10.79;72.89;97407.78;5113295;28;20251;-68
2022/02/17 10:39:37;;;;;;;11.50;2.67;;;;;;;11.24;71.79;97399.53;5113195;28;20206;-68
2022/02/17 10:42:07;;;;;;;7.90;2.40;;;;;;;11.51;68.47;97409.63;5113365;28;20222;-68
2022/02/17 10:44:35;;;;;;;9.13;2.60;;;;;;;11.72;68.25;97418.41;5117138;28;20602;-68
2022/02/17 10:47:23;;;;;;;11.37;2.53;;;;;;;12.01;66.54;97408.84;5116643;28;20208;-70
2022/02/17 10:49:52;;;;;;;8.20;2.30;;;;;;;12.07;62.77;97426.84;5107411;28;20248;-68
2022/02/17 10:52:29;;;;;;;8.70;2.00;;;;;;;12.06;65.32;97419.88;5117236;28;20225;-70
2022/02/17 10:55:14;;;;;;;7.03;1.93;;;;;;;12.01;64.80;97414.13;5114962;28;20267;-69
2022/02/17 10:57:41;;;;;;;8.60;2.23;;;;;;;11.79;66.34;97403.72;5117053;28;20573;-69
2022/02/17 11:00:19;;;;;;;8.10;2.50;;;;;;;11.58;66.49;97424.03;5117339;28;20261;-69
2022/02/17 11:02:46;;;;;;;11.77;2.80;;;;;;;11.65;67.94;97419.91;5116427;28;20213;-69
2022/02/17 11:05:14;;;;;;;7.13;2.63;;;;;;;11.61;71.88;97429.09;5116765;28;20245;-69
2022/02/17 11:07:41;;;;;;;10.00;2.53;;;;;;;11.73;72.17;97422.78;5116535;28;20598;-68
2022/02/17 11:10:09;;;;;;;8.20;2.50;;;;;;;11.96;68.71;97426.91;5116918;28;20260;-68
2022/02/17 11:12:38;;;;;;;8.43;2.77;;;;;;;12.13;65.38;97442.22;5116505;28;20222;-69
2022/02/17 11:15:06;;;;;;;8.80;2.40;;;;;;;12.16;64.05;97410.19;5116567;28;20229;-69
2022/02/17 11:17:36;;;;;;;8.40;2.10;;;;;;;12.09;61.68;97422.25;5116688;28;20249;-69
2022/02/17 11:20:05;;;;;;;9.83;2.23;;;;;;;12.12;62.22;97411.41;5116597;28;20215;-71
2022/02/17 11:22:31;;;;;;;8.83;2.47;;;;;;;12.15;61.79;97416.41;5113596;28;20221;-71
2022/02/17 11:24:58;;;;;;;9.10;2.30;;;;;;;12.35;59.60;97407.59;5115642;28;20602;-71
2022/02/17 11:27:24;;;;;;;8.50;2.40;;;;;;;12.37;58.88;97418.88;5115313;28;20221;-70
2022/02/17 11:29:52;;;;;;;6.93;2.10;;;;;;;12.29;60.22;97410.78;5115588;28;20210;-71
2022/02/17 11:32:23;;;;;;;7.30;2.30;;;;;;;12.23;57.91;97419.25;5113916;28;20215;-70